createdAt,value
2023-04-07T00:02:57.238Z,44.00
2023-04-07T00:05:59.413Z,44.40
2023-04-07T00:09:01.870Z,44.70
2023-04-07T00:12:04.193Z,44.80
2023-04-07T00:15:06.696Z,45.60
2023-04-07T00:18:09.738Z,45.80
2023-04-07T00:21:12.737Z,46.30
2023-04-07T00:24:18.499Z,47.50
2023-04-07T00:27:26.486Z,47.00
2023-04-07T00:30:28.551Z,47.90
2023-04-07T00:33:30.776Z,48.00
2023-04-07T00:36:33.426Z,48.10
2023-04-07T00:39:35.447Z,48.70
2023-04-07T00:42:38.650Z,48.70
2023-04-07T00:45:40.993Z,49.20
2023-04-07T00:48:46.468Z,49.20
2023-04-07T00:51:48.627Z,49.70
2023-04-07T00:54:51.107Z,49.70
2023-04-07T00:57:53.153Z,49.50
2023-04-07T01:01:17.087Z,49.70
2023-04-07T01:04:44.326Z,50.00
2023-04-07T01:08:03.143Z,50.80
2023-04-07T01:11:08.828Z,50.30
2023-04-07T01:14:13.763Z,50.20
2023-04-07T01:17:16.493Z,50.70
2023-04-07T01:20:22.991Z,50.30
2023-04-07T01:23:52.173Z,50.80
2023-04-07T01:27:00.781Z,50.80
2023-04-07T01:30:04.121Z,51.00
2023-04-07T01:33:07.817Z,50.80
2023-04-07T01:36:10.905Z,50.80
2023-04-07T01:39:14.075Z,51.60
2023-04-07T01:42:17.641Z,52.00
2023-04-07T01:45:21.306Z,52.30
2023-04-07T01:48:29.239Z,52.70
2023-04-07T01:51:32.750Z,52.80
2023-04-07T01:54:37.644Z,52.60
2023-04-07T01:57:39.613Z,53.10
2023-04-07T02:00:42.190Z,53.20
2023-04-07T02:04:01.550Z,53.80
2023-04-07T02:07:11.408Z,54.50
2023-04-07T02:10:16.601Z,54.10
2023-04-07T02:13:20.946Z,54.30
2023-04-07T02:16:23.254Z,54.80
2023-04-07T02:19:26.361Z,54.50
2023-04-07T02:22:29.371Z,54.50
2023-04-07T02:25:34.231Z,54.40
2023-04-07T02:28:36.278Z,54.80
2023-04-07T02:31:38.389Z,54.90
2023-04-07T02:34:40.574Z,55.40
2023-04-07T02:37:43.845Z,55.80
2023-04-07T02:40:45.792Z,57.10
2023-04-07T02:43:48.081Z,58.40
2023-04-07T02:46:50.034Z,59.40
2023-04-07T02:49:52.127Z,59.60
2023-04-07T02:52:54.091Z,59.20
2023-04-07T02:55:56.166Z,59.50
2023-04-07T02:58:58.219Z,60.10
2023-04-07T03:02:00.457Z,61.30
2023-04-07T03:05:04.513Z,61.90
2023-04-07T03:08:06.803Z,61.70
2023-04-07T03:11:08.781Z,61.60
2023-04-07T03:14:17.211Z,61.70
2023-04-07T03:17:19.222Z,61.50
2023-04-07T03:20:21.326Z,61.80
2023-04-07T03:23:24.138Z,61.40
2023-04-07T03:26:26.210Z,62.20
2023-04-07T03:29:28.209Z,62.50
2023-04-07T03:32:30.293Z,62.70
2023-04-07T03:35:33.595Z,63.90
2023-04-07T03:38:36.162Z,64.90
2023-04-07T03:41:38.161Z,65.30
2023-04-07T03:44:40.175Z,65.40
2023-04-07T03:47:42.225Z,65.70
2023-04-07T03:50:45.905Z,65.10
2023-04-07T03:53:48.004Z,64.80
2023-04-07T03:56:50.150Z,65.00
2023-04-07T03:59:56.264Z,65.30
2023-04-07T04:02:58.318Z,67.10
2023-04-07T04:06:00.342Z,66.40
2023-04-07T04:09:03.009Z,68.60
2023-04-07T04:12:05.595Z,68.10
2023-04-07T04:15:18.588Z,68.90
2023-04-07T04:18:26.283Z,68.60
2023-04-07T04:21:28.542Z,67.70
2023-04-07T04:24:30.492Z,67.00
2023-04-07T04:27:32.578Z,66.20
2023-04-07T04:30:34.612Z,66.30
2023-04-07T04:33:36.783Z,65.90
2023-04-07T04:36:41.128Z,66.70
2023-04-07T04:39:43.271Z,66.90
2023-04-07T04:42:45.551Z,66.70
2023-04-07T04:45:47.976Z,66.60
2023-04-07T04:48:51.633Z,67.10
2023-04-07T04:51:53.617Z,68.20
2023-04-07T04:54:55.727Z,69.10
2023-04-07T04:57:58.188Z,69.80
2023-04-07T05:01:01.509Z,70.10
2023-04-07T05:04:03.828Z,70.80
2023-04-07T05:07:06.171Z,71.00
2023-04-07T05:10:09.120Z,70.80
2023-04-07T05:13:11.474Z,70.80
2023-04-07T05:16:13.875Z,72.10
2023-04-07T05:19:16.153Z,72.20
2023-04-07T05:22:18.153Z,72.70
2023-04-07T05:25:20.212Z,72.70
2023-04-07T05:28:22.545Z,73.20
2023-04-07T05:31:24.700Z,73.30
2023-04-07T05:34:27.462Z,74.30
2023-04-07T05:37:29.563Z,74.30
2023-04-07T05:40:31.608Z,75.10
2023-04-07T05:43:33.603Z,75.20
2023-04-07T05:46:35.682Z,75.10
2023-04-07T05:49:37.770Z,76.40
2023-04-07T05:52:39.722Z,76.70
2023-04-07T05:55:44.869Z,76.50
2023-04-07T05:58:47.323Z,78.20
2023-04-07T06:01:49.802Z,76.90
2023-04-07T06:04:52.124Z,77.10
2023-04-07T06:07:55.128Z,77.20
2023-04-07T06:10:57.141Z,77.50
2023-04-07T06:13:59.197Z,76.90
2023-04-07T06:17:01.479Z,78.00
2023-04-07T06:20:04.211Z,77.80
2023-04-07T06:23:06.786Z,78.00
2023-04-07T06:26:12.675Z,77.40
2023-04-07T06:29:16.564Z,77.30
2023-04-07T06:32:19.166Z,77.30
2023-04-07T06:35:22.350Z,77.90
2023-04-07T06:38:24.509Z,78.20
2023-04-07T06:41:26.593Z,78.00
2023-04-07T06:44:28.702Z,77.70
2023-04-07T06:47:30.851Z,78.30
2023-04-07T06:50:33.097Z,77.90
2023-04-07T06:53:35.293Z,76.80
2023-04-07T06:56:37.348Z,75.80
2023-04-07T06:59:39.642Z,73.00
2023-04-07T07:02:41.751Z,71.90
2023-04-07T07:05:43.847Z,70.20
2023-04-07T07:08:45.846Z,68.30
2023-04-07T07:11:47.906Z,68.10
2023-04-07T07:14:49.874Z,66.30
2023-04-07T07:17:51.911Z,65.60
2023-04-07T07:20:53.996Z,64.80
2023-04-07T07:23:56.240Z,63.50
2023-04-07T07:27:02.867Z,62.50
2023-04-07T07:30:05.729Z,61.80
2023-04-07T07:33:07.893Z,59.60
2023-04-07T07:36:10.563Z,59.70
2023-04-07T07:39:14.136Z,58.10
2023-04-07T07:42:16.368Z,56.50
2023-04-07T07:45:19.788Z,55.00
2023-04-07T07:48:22.075Z,52.60
2023-04-07T07:51:25.100Z,54.20
2023-04-07T07:54:27.239Z,51.40
2023-04-07T07:57:31.064Z,51.80
2023-04-07T08:00:33.063Z,51.70
2023-04-07T08:03:35.175Z,48.20
2023-04-07T08:06:37.779Z,46.70
2023-04-07T08:09:40.000Z,47.40
2023-04-07T08:12:42.134Z,45.40
2023-04-07T08:15:44.371Z,44.30
2023-04-07T08:18:47.056Z,44.40
2023-04-07T08:21:49.285Z,42.70
2023-04-07T08:24:51.238Z,41.40
2023-04-07T08:27:55.065Z,40.60
2023-04-07T08:30:57.106Z,40.10
2023-04-07T08:33:59.594Z,40.10
2023-04-07T08:37:01.683Z,40.00
2023-04-07T08:40:05.056Z,38.20
2023-04-07T08:43:10.716Z,37.00
2023-04-07T08:46:13.747Z,36.00
2023-04-07T08:49:18.689Z,36.30
2023-04-07T08:52:26.307Z,34.40
2023-04-07T08:55:28.381Z,32.80
2023-04-07T08:58:30.993Z,32.00
2023-04-07T09:01:36.493Z,30.00
2023-04-07T09:04:38.670Z,28.90
2023-04-07T09:07:41.040Z,29.30
2023-04-07T09:10:43.020Z,29.00
2023-04-07T09:13:45.018Z,28.10
2023-04-07T09:16:47.824Z,28.80
2023-04-07T09:19:52.685Z,27.70
2023-04-07T09:22:54.792Z,26.30
2023-04-07T09:25:59.822Z,27.70
2023-04-07T09:29:07.439Z,26.50
2023-04-07T09:32:10.680Z,25.10
2023-04-07T09:35:12.951Z,25.70
2023-04-07T09:38:14.943Z,26.10
2023-04-07T09:41:17.336Z,25.20
2023-04-07T09:44:23.441Z,24.80
2023-04-07T09:47:32.916Z,24.70
2023-04-07T09:50:45.883Z,25.00
2023-04-07T09:53:52.624Z,24.90
2023-04-07T09:56:56.309Z,23.80
2023-04-07T09:59:59.847Z,23.90
2023-04-07T10:03:02.133Z,24.50
2023-04-07T10:06:06.481Z,25.80
2023-04-07T10:09:08.569Z,26.60
2023-04-07T10:12:11.481Z,29.10
2023-04-07T10:15:16.011Z,28.00
2023-04-07T10:18:19.711Z,29.00
2023-04-07T10:21:22.454Z,27.80
2023-04-07T10:24:53.827Z,28.00
2023-04-07T10:28:03.876Z,28.80
2023-04-07T10:31:06.269Z,27.60
2023-04-07T10:34:08.656Z,28.20
2023-04-07T10:37:14.820Z,27.30
2023-04-07T10:40:20.011Z,28.50
2023-04-07T10:43:42.275Z,25.90
2023-04-07T10:46:50.192Z,29.70
2023-04-07T10:50:19.022Z,26.30
2023-04-07T10:53:21.610Z,25.40
2023-04-07T10:56:24.110Z,26.00
2023-04-07T10:59:27.923Z,26.70
2023-04-07T11:02:30.943Z,25.60
2023-04-07T11:05:33.090Z,24.70
2023-04-07T11:08:42.879Z,25.30
2023-04-07T11:11:49.449Z,25.10
2023-04-07T11:14:51.647Z,25.90
2023-04-07T11:18:13.629Z,25.40
2023-04-07T11:21:19.884Z,24.90
2023-04-07T11:24:40.157Z,24.50
2023-04-07T11:27:44.879Z,25.80
2023-04-07T11:30:50.092Z,25.00
2023-04-07T11:33:56.874Z,25.20
2023-04-07T11:37:00.148Z,26.30
2023-04-07T11:40:02.277Z,29.30
2023-04-07T11:43:17.458Z,30.20
2023-04-07T11:46:19.467Z,31.40
2023-04-07T11:49:24.049Z,31.80
2023-04-07T11:52:26.758Z,32.70
2023-04-07T11:55:30.325Z,33.50
2023-04-07T11:58:32.803Z,36.30
2023-04-07T12:01:45.213Z,36.10
2023-04-07T12:04:57.595Z,37.30
2023-04-07T12:07:59.863Z,37.30
2023-04-07T12:11:05.488Z,39.10
2023-04-07T12:14:08.997Z,40.50
2023-04-07T12:17:23.979Z,41.50
2023-04-07T12:20:26.987Z,42.80
2023-04-07T12:23:29.085Z,43.50
2023-04-07T12:26:31.145Z,43.90
2023-04-07T12:29:34.769Z,42.70
2023-04-07T12:32:37.987Z,43.00
2023-04-07T12:35:40.638Z,45.20
2023-04-07T12:38:42.767Z,45.40
2023-04-07T12:41:49.227Z,46.00
2023-04-07T12:44:51.828Z,45.70
2023-04-07T12:47:53.873Z,45.00
2023-04-07T12:50:56.002Z,44.50
2023-04-07T12:53:58.040Z,43.10
2023-04-07T12:57:00.250Z,43.30
2023-04-07T13:00:02.584Z,40.80
2023-04-07T13:03:04.738Z,42.70
2023-04-07T13:06:06.877Z,41.00
2023-04-07T13:09:08.937Z,39.50
2023-04-07T13:12:12.030Z,39.50
2023-04-07T13:15:14.176Z,37.50
2023-04-07T13:18:16.563Z,38.00
2023-04-07T13:24:25.072Z,38.50
2023-04-07T13:27:27.823Z,38.10
2023-04-07T13:30:29.911Z,36.50
2023-04-07T13:33:32.085Z,36.20
2023-04-07T13:36:34.150Z,36.20
2023-04-07T13:39:36.371Z,34.10
2023-04-07T13:42:40.306Z,36.50
2023-04-07T13:45:42.314Z,35.10
2023-04-07T13:48:45.666Z,37.10
2023-04-07T13:51:47.729Z,35.50
2023-04-07T13:54:51.386Z,34.80
2023-04-07T13:57:53.781Z,34.30
2023-04-07T14:00:56.225Z,32.10
2023-04-07T14:04:00.871Z,30.70
2023-04-07T14:07:03.835Z,30.20
2023-04-07T14:10:07.230Z,30.10
2023-04-07T14:13:11.273Z,28.10
2023-04-07T14:16:13.367Z,28.60
2023-04-07T14:19:15.586Z,27.60
2023-04-07T14:22:20.111Z,26.20
2023-04-07T14:25:22.513Z,25.50
2023-04-07T14:28:24.728Z,25.50
2023-04-07T14:31:26.752Z,25.60
2023-04-07T14:34:28.749Z,25.10
2023-04-07T14:37:30.818Z,25.10
2023-04-07T14:40:32.798Z,25.30
2023-04-07T14:43:35.796Z,26.30
2023-04-07T14:46:37.870Z,26.70
2023-04-07T14:49:39.985Z,24.20
2023-04-07T14:52:42.060Z,25.80
2023-04-07T14:55:44.195Z,27.30
2023-04-07T14:58:46.241Z,27.80
2023-04-07T15:01:48.751Z,27.00
2023-04-07T15:04:52.696Z,26.90
2023-04-07T15:07:54.763Z,25.00
2023-04-07T15:10:59.837Z,24.20
2023-04-07T15:14:02.003Z,24.00
2023-04-07T15:17:04.978Z,24.00
2023-04-07T15:20:07.835Z,23.00
2023-04-07T15:23:09.864Z,22.00
2023-04-07T15:26:12.106Z,21.90
2023-04-07T15:29:14.467Z,22.00
2023-04-07T15:32:16.448Z,24.20
2023-04-07T15:35:18.484Z,25.30
2023-04-07T15:38:20.974Z,22.70
2023-04-07T15:41:24.869Z,21.10
2023-04-07T15:44:27.176Z,23.40
2023-04-07T15:47:29.522Z,25.50
2023-04-07T15:50:31.874Z,27.40
2023-04-07T15:53:35.039Z,28.40
2023-04-07T15:56:37.115Z,28.90
2023-04-07T15:59:39.359Z,27.70
2023-04-07T16:02:42.083Z,25.60
2023-04-07T16:05:45.226Z,24.60
2023-04-07T16:08:47.236Z,23.80
2023-04-07T16:11:49.272Z,24.20
2023-04-07T16:14:51.384Z,24.20
2023-04-07T16:17:53.542Z,23.10
2023-04-07T16:20:55.777Z,23.40
2023-04-07T16:23:57.891Z,22.70
2023-04-07T16:27:03.965Z,22.60
2023-04-07T16:30:07.002Z,23.30
2023-04-07T16:33:09.093Z,22.70
2023-04-07T16:36:11.166Z,23.10
2023-04-07T16:39:13.210Z,22.30
2023-04-07T16:42:15.405Z,22.50
2023-04-07T16:45:20.290Z,22.90
2023-04-07T16:48:25.541Z,22.70
2023-04-07T16:51:28.614Z,22.50
2023-04-07T16:54:30.697Z,22.90
2023-04-07T16:57:32.792Z,22.80
2023-04-07T17:00:34.754Z,22.60
2023-04-07T17:03:37.648Z,23.00
2023-04-07T17:06:40.060Z,22.70
2023-04-07T17:09:42.260Z,22.60
2023-04-07T17:12:44.541Z,22.80
2023-04-07T17:15:46.947Z,23.00
2023-04-07T17:18:49.144Z,24.00
2023-04-07T17:21:51.390Z,24.70
2023-04-07T17:24:53.393Z,25.70
2023-04-07T17:27:55.686Z,26.70
2023-04-07T17:30:58.649Z,27.00
2023-04-07T17:34:00.952Z,28.30
2023-04-07T17:37:03.077Z,29.60
2023-04-07T17:40:05.905Z,30.00
2023-04-07T17:43:08.028Z,30.10
2023-04-07T17:46:10.104Z,30.60
2023-04-07T17:49:12.817Z,31.20
2023-04-07T17:52:16.160Z,33.10
2023-04-07T17:55:18.655Z,33.20
2023-04-07T17:58:21.291Z,34.40
2023-04-07T18:01:23.716Z,37.60
2023-04-07T18:04:26.463Z,38.30
2023-04-07T18:07:29.873Z,39.10
2023-04-07T18:10:32.091Z,40.60
2023-04-07T18:13:34.159Z,40.10
2023-04-07T18:16:36.670Z,39.30
2023-04-07T18:19:38.701Z,39.60
2023-04-07T18:22:41.030Z,40.20
2023-04-07T18:25:43.098Z,40.00
2023-04-07T18:28:46.596Z,40.90
2023-04-07T18:31:48.709Z,42.00
2023-04-07T18:34:52.400Z,41.70
2023-04-07T18:37:54.706Z,41.40
2023-04-07T18:40:56.775Z,42.60
2023-04-07T18:43:58.954Z,43.00
2023-04-07T18:47:01.463Z,44.40
2023-04-07T18:50:03.751Z,45.50
2023-04-07T18:53:07.189Z,47.80
2023-04-07T18:56:09.284Z,48.30
2023-04-07T18:59:13.133Z,49.80
2023-04-07T19:02:15.647Z,49.70
2023-04-07T19:05:20.989Z,50.80
2023-04-07T19:08:24.550Z,52.50
2023-04-07T19:11:27.160Z,53.00
2023-04-07T19:14:29.130Z,53.90
2023-04-07T19:17:32.293Z,54.20
2023-04-07T19:20:34.408Z,54.90
2023-04-07T19:23:36.408Z,55.90
2023-04-07T19:26:38.829Z,56.10
2023-04-07T19:29:40.990Z,56.50
2023-04-07T19:32:43.905Z,56.60
2023-04-07T19:35:46.398Z,58.00
2023-04-07T19:38:48.612Z,58.90
2023-04-07T19:41:50.709Z,59.20
2023-04-07T19:44:55.065Z,59.40
2023-04-07T19:47:58.434Z,60.50
2023-04-07T19:51:00.738Z,61.20
2023-04-07T19:54:03.680Z,61.00
2023-04-07T19:57:05.764Z,61.50
2023-04-07T20:00:09.177Z,60.60
2023-04-07T20:03:11.447Z,61.30
2023-04-07T20:06:15.312Z,62.40
2023-04-07T20:09:17.570Z,61.80
2023-04-07T20:12:19.620Z,62.00
2023-04-07T20:15:24.671Z,61.20
2023-04-07T20:18:28.360Z,62.20
2023-04-07T20:21:32.460Z,62.60
2023-04-07T20:24:37.659Z,63.50
2023-04-07T20:27:39.877Z,63.30
2023-04-07T20:30:41.928Z,64.70
2023-04-07T20:33:43.933Z,63.70
2023-04-07T20:36:48.940Z,64.10
2023-04-07T20:39:51.249Z,64.50
2023-04-07T20:42:53.320Z,64.20
2023-04-07T20:45:56.873Z,64.40
2023-04-07T20:48:58.927Z,64.30
2023-04-07T20:52:00.964Z,65.00
2023-04-07T20:55:04.931Z,65.30
2023-04-07T20:58:07.312Z,65.40
2023-04-07T21:01:09.452Z,65.40
2023-04-07T21:04:12.785Z,65.50
2023-04-07T21:07:14.976Z,66.30
2023-04-07T21:10:17.032Z,65.50
2023-04-07T21:13:19.977Z,66.70
2023-04-07T21:16:24.965Z,66.40
2023-04-07T21:19:27.065Z,67.20
2023-04-07T21:22:30.994Z,66.90
2023-04-07T21:25:32.979Z,67.20
2023-04-07T21:28:35.036Z,66.60
2023-04-07T21:31:37.260Z,66.40
2023-04-07T21:34:41.016Z,68.40
2023-04-07T21:37:43.146Z,67.30
2023-04-07T21:40:45.179Z,66.40
2023-04-07T21:43:47.788Z,66.90
2023-04-07T21:46:49.857Z,67.20
2023-04-07T21:49:51.946Z,66.90
2023-04-07T21:52:53.936Z,67.30
2023-04-07T21:55:56.280Z,66.90
2023-04-07T21:58:59.174Z,66.70
2023-04-07T22:02:01.300Z,67.10
2023-04-07T22:05:04.008Z,67.20
2023-04-07T22:08:06.734Z,67.50
2023-04-07T22:11:09.001Z,67.60
2023-04-07T22:14:11.114Z,67.60
2023-04-07T22:17:13.135Z,67.70
2023-04-07T22:20:15.664Z,68.00
2023-04-07T22:23:17.672Z,68.40
2023-04-07T22:26:19.854Z,67.80
2023-04-07T22:29:22.172Z,68.10
2023-04-07T22:32:24.264Z,68.80
2023-04-07T22:35:26.429Z,68.60
2023-04-07T22:38:29.606Z,68.60
2023-04-07T22:41:31.745Z,69.00
2023-04-07T22:44:33.840Z,68.80
2023-04-07T22:47:36.432Z,68.80
2023-04-07T22:50:38.847Z,69.20
2023-04-07T22:53:41.091Z,68.90
2023-04-07T22:56:44.674Z,69.70
2023-04-07T22:59:46.737Z,70.60
2023-04-07T23:02:51.853Z,70.90
2023-04-07T23:05:54.293Z,70.90
2023-04-07T23:08:57.134Z,71.50
2023-04-07T23:11:59.193Z,71.60
2023-04-07T23:15:01.516Z,71.00
2023-04-07T23:18:03.631Z,71.60
2023-04-07T23:21:05.880Z,71.80
2023-04-07T23:24:07.938Z,71.90
2023-04-07T23:27:10.288Z,72.50
2023-04-07T23:30:13.364Z,72.80
2023-04-07T23:33:15.408Z,73.10
2023-04-07T23:36:17.559Z,72.40
2023-04-07T23:39:20.727Z,72.80
2023-04-07T23:42:24.556Z,72.60
2023-04-07T23:45:26.642Z,72.60
2023-04-07T23:48:28.789Z,72.80
2023-04-07T23:51:30.826Z,73.70
2023-04-07T23:54:32.813Z,73.10
2023-04-07T23:57:34.858Z,72.80
